Time;durP1;ratioP1;P1;durP2;ratioP2;P2;SDS_P1;SDS_P2;PMS_P1;PMS_P2;Temp;Humidity;BMP_temperature;BMP_pressure;BME280_temperature;BME280_humidity;BME280_pressure;Samples;Min_cycle;Max_cycle;Signal;HPM_P1;HPM_P2
2022/10/12 00:01:35;;;;;;;36.70;25.23;;;;;;;;;;5036857;28;20254;-72
2022/10/12 00:04:01;;;;;;;44.72;25.73;;;;;;;;;;5038525;28;20209;-71
2022/10/12 00:06:28;;;;;;;33.83;25.50;;;;;;;;;;5037662;28;20227;-71
2022/10/12 00:08:55;;;;;;;34.83;25.25;;;;;;;;;;5039157;28;20295;-71
2022/10/12 00:11:22;;;;;;;37.13;24.88;;;;;;;;;;5038144;28;20700;-72
2022/10/12 00:13:51;;;;;;;32.08;25.10;;;;;;;;;;5038964;28;20210;-71
2022/10/12 00:16:18;;;;;;;34.88;24.67;;;;;;;;;;5033669;28;20214;-73
2022/10/12 00:18:45;;;;;;;37.17;25.70;;;;;;;;;;5041282;28;20298;-72
2022/10/12 00:21:12;;;;;;;37.00;26.38;;;;;;;;;;5036074;28;20557;-72
2022/10/12 00:23:40;;;;;;;30.38;22.98;;;;;;;;;;5036399;28;20210;-72
2022/10/12 00:26:07;;;;;;;34.20;24.15;;;;;;;;;;5037276;28;20695;-72
2022/10/12 00:28:34;;;;;;;40.40;24.88;;;;;;;;;;5041775;28;20551;-72
2022/10/12 00:31:06;;;;;;;33.33;22.63;;;;;;;;;;5038538;28;20202;-72
2022/10/12 00:33:33;;;;;;;41.75;23.85;;;;;;;;;;5039587;28;20784;-72
2022/10/12 00:35:59;;;;;;;35.40;24.13;;;;;;;;;;5038859;28;20238;-72
2022/10/12 00:38:26;;;;;;;35.10;24.08;;;;;;;;;;5039913;28;20249;-72
2022/10/12 00:40:52;;;;;;;34.47;24.33;;;;;;;;;;5039323;28;20322;-72
2022/10/12 00:43:26;;;;;;;38.88;24.67;;;;;;;;;;5039177;28;20604;-72
2022/10/12 00:45:52;;;;;;;37.75;25.95;;;;;;;;;;5038253;28;20315;-72
2022/10/12 00:48:20;;;;;;;35.25;25.20;;;;;;;;;;5040989;28;20706;-72
2022/10/12 00:50:47;;;;;;;33.40;24.20;;;;;;;;;;5040457;28;20699;-72
2022/10/12 00:53:15;;;;;;;33.75;24.00;;;;;;;;;;5041086;28;20202;-75
2022/10/12 00:55:45;;;;;;;33.78;25.00;;;;;;;;;;5040344;28;20229;-71
2022/10/12 00:58:12;;;;;;;35.80;24.40;;;;;;;;;;5036625;28;20753;-72
2022/10/12 01:00:39;;;;;;;37.50;25.23;;;;;;;;;;5039195;28;21567;-73
2022/10/12 01:03:06;;;;;;;41.30;26.45;;;;;;;;;;5038036;28;20248;-73
2022/10/12 01:05:34;;;;;;;35.83;25.50;;;;;;;;;;5036494;28;20263;-72
2022/10/12 01:08:01;;;;;;;38.22;23.92;;;;;;;;;;5037440;28;20230;-71
2022/10/12 01:10:28;;;;;;;32.70;24.45;;;;;;;;;;5039484;28;20300;-72
2022/10/12 01:12:54;;;;;;;37.42;25.42;;;;;;;;;;5040451;28;20291;-72
2022/10/12 01:15:22;;;;;;;39.17;26.80;;;;;;;;;;5039523;28;20262;-72
2022/10/12 01:17:53;;;;;;;36.85;25.35;;;;;;;;;;5039727;28;20753;-71
2022/10/12 01:20:39;;;;;;;37.28;27.75;;;;;;;;;;5040740;28;20291;-72
2022/10/12 01:23:21;;;;;;;36.35;25.88;;;;;;;;;;5040190;28;20671;-72
2022/10/12 01:25:58;;;;;;;41.10;27.33;;;;;;;;;;5037875;28;20210;-71
2022/10/12 01:28:30;;;;;;;41.75;27.30;;;;;;;;;;5038137;28;20225;-71
2022/10/12 01:31:02;;;;;;;40.63;27.17;;;;;;;;;;5039247;28;20198;-72
2022/10/12 01:33:33;;;;;;;43.78;28.17;;;;;;;;;;5039144;28;20244;-71
2022/10/12 01:36:04;;;;;;;41.40;29.42;;;;;;;;;;5039757;28;20222;-71
2022/10/12 01:38:34;;;;;;;48.10;28.52;;;;;;;;;;5039367;28;20261;-72
2022/10/12 01:41:02;;;;;;;45.75;29.38;;;;;;;;;;5038491;28;20206;-72
2022/10/12 01:43:36;;;;;;;41.78;28.13;;;;;;;;;;5041046;28;20267;-72
2022/10/12 01:46:20;;;;;;;45.30;29.35;;;;;;;;;;5041783;28;20876;-72
2022/10/12 01:48:49;;;;;;;46.45;28.45;;;;;;;;;;5026352;28;20270;-73
2022/10/12 01:51:17;;;;;;;38.88;28.15;;;;;;;;;;5042949;28;20202;-72
2022/10/12 01:53:46;;;;;;;41.05;28.95;;;;;;;;;;5042775;28;20287;-72
2022/10/12 01:56:18;;;;;;;51.92;28.88;;;;;;;;;;5044590;28;20236;-72
2022/10/12 01:58:51;;;;;;;42.80;28.80;;;;;;;;;;5043321;28;20920;-72
2022/10/12 02:01:26;;;;;;;42.45;28.08;;;;;;;13.69;nan;95779.72;5042994;28;20262;-72
2022/10/12 02:03:58;;;;;;;46.33;29.10;;;;;;;;;;5041901;28;20970;-71
2022/10/12 02:06:28;;;;;;;38.65;27.90;;;;;;;;;;5038733;28;20222;-72
2022/10/12 02:08:56;;;;;;;40.03;27.95;;;;;;;;;;5041410;28;20736;-72
2022/10/12 02:11:24;;;;;;;41.42;26.80;;;;;;;;;;5043454;28;20229;-72
2022/10/12 02:13:53;;;;;;;37.88;26.42;;;;;;;;;;5042318;28;20495;-73
2022/10/12 02:16:20;;;;;;;39.38;26.83;;;;;;;;;;5042327;28;20211;-73
2022/10/12 02:18:48;;;;;;;41.47;28.52;;;;;;;;;;5041798;28;21082;-72
2022/10/12 02:21:18;;;;;;;39.40;26.70;;;;;;;;;;5043035;28;20282;-73
2022/10/12 02:23:46;;;;;;;42.80;27.83;;;;;;;;;;5041945;28;20265;-72
2022/10/12 02:26:13;;;;;;;42.30;28.00;;;;;;;;;;5040494;28;20206;-72
2022/10/12 02:28:39;;;;;;;40.72;27.85;;;;;;;;;;5040544;28;20237;-72
2022/10/12 02:31:09;;;;;;;39.83;28.65;;;;;;;;;;5039834;28;20277;-73
2022/10/12 02:33:38;;;;;;;44.67;28.95;;;;;;;;;;5041804;28;20346;-73
2022/10/12 02:36:08;;;;;;;39.30;26.85;;;;;;;;;;5039785;28;20237;-73
2022/10/12 02:38:39;;;;;;;40.30;27.83;;;;;;;;;;5039905;28;20198;-73
2022/10/12 02:41:07;;;;;;;45.70;27.88;;;;;;;;;;5040956;28;20341;-73
2022/10/12 02:43:36;;;;;;;34.47;24.70;;;;;;;;;;5039579;28;20203;-72
2022/10/12 02:46:05;;;;;;;40.90;26.80;;;;;;;;;;5040315;28;20252;-73
2022/10/12 02:48:31;;;;;;;41.15;27.08;;;;;;;;;;5041832;28;20240;-72
2022/10/12 02:50:59;;;;;;;40.13;28.52;;;;;;;;;;5040829;28;20230;-72
2022/10/12 02:53:28;;;;;;;37.60;26.48;;;;;;;;;;5042379;28;20207;-73
2022/10/12 02:56:02;;;;;;;43.08;29.35;;;;;;;;;;5039683;28;20256;-73
2022/10/12 02:58:29;;;;;;;43.60;28.98;;;;;;;;;;5040185;28;20201;-72
2022/10/12 03:00:55;;;;;;;40.55;26.90;;;;;;;;;;5040719;28;20214;-72
2022/10/12 03:03:22;;;;;;;47.58;28.38;;;;;;;;;;5041383;28;21065;-72
2022/10/12 03:05:48;;;;;;;38.15;26.40;;;;;;;;;;5044333;28;20202;-72
2022/10/12 03:08:15;;;;;;;39.95;27.02;;;;;;;;;;5041785;28;20287;-72
2022/10/12 03:10:41;;;;;;;42.53;27.55;;;;;;;;;;5041568;28;20217;-73
2022/10/12 03:13:09;;;;;;;45.58;27.30;;;;;;;;;;5042077;28;20687;-73
2022/10/12 03:15:35;;;;;;;51.78;27.42;;;;;;;;;;5042896;28;20214;-72
2022/10/12 03:18:02;;;;;;;51.28;29.98;;;;;;;;;;5041149;28;20218;-73
2022/10/12 03:20:28;;;;;;;41.03;28.45;;;;;;;;;;5041863;28;20703;-72
2022/10/12 03:22:55;;;;;;;42.63;28.55;;;;;;;;;;5040819;28;21151;-72
2022/10/12 03:25:21;;;;;;;47.55;30.75;;;;;;;;;;5040663;28;20234;-72
2022/10/12 03:27:48;;;;;;;43.10;29.92;;;;;;;;;;5039515;28;20307;-72
2022/10/12 03:30:16;;;;;;;43.15;28.90;;;;;;;;;;5042604;28;20250;-73
2022/10/12 03:32:42;;;;;;;42.33;28.10;;;;;;;;;;5041709;28;20243;-72
2022/10/12 03:35:09;;;;;;;41.38;27.27;;;;;;;;;;5042618;28;20215;-72
2022/10/12 03:37:36;;;;;;;41.20;28.38;;;;;;;;;;5042368;28;20205;-73
2022/10/12 03:40:03;;;;;;;91.55;55.40;;;;;;;;;;5040494;28;20343;-72
2022/10/12 03:42:29;;;;;;;71.53;43.05;;;;;;;;;;5042334;28;20212;-74
2022/10/12 03:44:56;;;;;;;50.90;35.67;;;;;;;;;;5040719;28;20209;-73
2022/10/12 03:47:24;;;;;;;44.15;30.35;;;;;;;;;;5039586;28;20290;-74
2022/10/12 03:49:50;;;;;;;35.92;25.92;;;;;;;;;;5040673;28;20319;-74
2022/10/12 03:52:17;;;;;;;45.25;27.50;;;;;;;;;;5043633;28;20279;-73
2022/10/12 03:54:43;;;;;;;41.65;26.77;;;;;;;;;;5039541;28;20206;-73
2022/10/12 03:57:10;;;;;;;42.65;28.20;;;;;;;;;;5039781;28;20264;-72
2022/10/12 03:59:36;;;;;;;42.13;28.73;;;;;;;;;;5041857;28;20202;-73
2022/10/12 04:02:03;;;;;;;43.65;29.63;;;;;;;;;;5041367;28;20687;-73
2022/10/12 04:04:30;;;;;;;42.40;29.38;;;;;;;;;;5041068;28;20226;-74
2022/10/12 04:06:57;;;;;;;47.15;30.52;;;;;;;;;;5039565;28;21009;-74
2022/10/12 04:09:23;;;;;;;38.85;27.60;;;;;;;;;;5040168;28;20885;-71
2022/10/12 04:11:50;;;;;;;46.95;28.25;;;;;;;;;;5040467;28;20205;-72
2022/10/12 04:14:16;;;;;;;41.55;28.92;;;;;;;;;;5040506;28;20202;-71
2022/10/12 04:16:43;;;;;;;41.35;28.67;;;;;;;;;;5039225;28;20210;-73
2022/10/12 04:19:12;;;;;;;97.47;59.50;;;;;;;;;;5042884;28;20292;-73
2022/10/12 04:21:40;;;;;;;49.25;32.38;;;;;;;;;;5039229;28;20206;-73
2022/10/12 04:24:06;;;;;;;42.72;29.30;;;;;;;;;;5039604;28;20232;-73
2022/10/12 04:26:33;;;;;;;40.95;29.88;;;;;;;;;;5041693;28;20209;-73
2022/10/12 04:28:59;;;;;;;44.00;30.80;;;;;;;;;;5042379;28;20304;-71
2022/10/12 04:31:26;;;;;;;42.70;28.35;;;;;;;;;;5039956;28;20264;-71
2022/10/12 04:33:55;;;;;;;46.05;29.38;;;;;;;;;;5040326;28;20229;-72
2022/10/12 04:36:22;;;;;;;43.15;29.88;;;;;;;;;;5040947;28;20198;-71
2022/10/12 04:38:50;;;;;;;41.10;28.25;;;;;;;;;;5041605;28;20227;-71
2022/10/12 04:41:16;;;;;;;41.75;27.55;;;;;;;;;;5040439;28;20653;-73
2022/10/12 04:43:43;;;;;;;37.83;27.55;;;;;;;;;;5038008;28;20213;-73
2022/10/12 04:46:09;;;;;;;42.03;27.63;;;;;;;;;;5038824;28;20795;-72
2022/10/12 04:48:36;;;;;;;44.70;27.92;;;;;;;;;;5040494;28;20237;-73
2022/10/12 04:51:02;;;;;;;40.75;27.58;;;;;;;;;;5040880;28;20206;-72
2022/10/12 04:53:29;;;;;;;39.72;26.33;;;;;;;;;;5040050;28;20210;-73
2022/10/12 04:55:57;;;;;;;39.05;27.02;;;;;;;;;;5036917;28;20214;-72
2022/10/12 04:58:23;;;;;;;38.10;27.80;;;;;;;;;;5037942;28;20699;-72
2022/10/12 05:00:50;;;;;;;36.95;26.08;;;;;;;;;;5040048;28;20255;-73
2022/10/12 05:03:16;;;;;;;39.63;26.20;;;;;;;;;;5039881;28;20303;-73
2022/10/12 05:05:44;;;;;;;39.30;27.40;;;;;;;;;;5038594;28;20206;-73
2022/10/12 05:08:11;;;;;;;46.85;29.02;;;;;;;;;;5042172;28;20230;-72
2022/10/12 05:10:39;;;;;;;46.97;30.73;;;;;;;;;;5040639;28;20209;-71
2022/10/12 05:13:07;;;;;;;52.95;32.75;;;;;;;;;;5037777;28;21655;-73
2022/10/12 05:15:33;;;;;;;51.58;31.50;;;;;;;;;;5038378;28;20676;-72
2022/10/12 05:18:00;;;;;;;47.05;32.35;;;;;;;;;;5040332;28;20190;-72
2022/10/12 05:20:26;;;;;;;47.97;32.72;;;;;;;;;;5043634;28;20202;-72
2022/10/12 05:22:53;;;;;;;55.38;36.75;;;;;;;;;;5043350;28;20251;-73
2022/10/12 05:25:19;;;;;;;63.92;39.38;;;;;;;;;;5042970;28;20206;-73
2022/10/12 05:27:46;;;;;;;57.63;39.65;;;;;;;;;;5043723;28;20872;-72
2022/10/12 05:30:14;;;;;;;63.63;41.33;;;;;;;;;;5043873;28;21911;-74
2022/10/12 05:32:42;;;;;;;57.55;37.95;;;;;;;;;;5044269;28;20241;-73
2022/10/12 05:35:09;;;;;;;55.65;35.03;;;;;;;;;;5043096;28;20212;-71
2022/10/12 05:37:36;;;;;;;47.50;34.80;;;;;;;;;;5044106;28;20206;-71
2022/10/12 05:40:02;;;;;;;51.30;33.60;;;;;;;;;;5042486;28;20586;-71
2022/10/12 05:42:29;;;;;;;45.20;30.02;;;;;;;;;;5043263;28;20895;-71
2022/10/12 05:44:55;;;;;;;38.55;28.08;;;;;;;;;;5041566;28;20268;-71
2022/10/12 05:47:23;;;;;;;44.38;28.40;;;;;;;;;;5041409;28;20205;-73
2022/10/12 05:49:50;;;;;;;39.65;26.80;;;;;;;;;;5042506;28;20646;-73
2022/10/12 05:52:16;;;;;;;41.25;26.48;;;;;;;;;;5041642;28;20226;-73
2022/10/12 05:54:42;;;;;;;37.80;25.50;;;;;;;;;;5043254;28;20205;-75
2022/10/12 05:57:09;;;;;;;43.53;28.05;;;;;;;;;;5041748;28;20665;-71
2022/10/12 05:59:35;;;;;;;39.92;27.17;;;;;;;;;;5043054;28;20676;-71
2022/10/12 06:02:02;;;;;;;48.25;28.67;;;;;;;;;;5042411;28;20216;-71
2022/10/12 06:04:30;;;;;;;47.40;29.65;;;;;;;;;;5042869;28;20987;-73
2022/10/12 06:06:57;;;;;;;44.42;29.52;;;;;;;;;;5041899;28;20226;-71
2022/10/12 06:09:23;;;;;;;46.72;31.50;;;;;;;;;;5043296;28;20733;-72
2022/10/12 06:11:50;;;;;;;54.05;31.00;;;;;;;;;;5043985;28;20202;-72
2022/10/12 06:14:16;;;;;;;41.53;29.40;;;;;;;;;;5042751;28;20384;-72
2022/10/12 06:16:43;;;;;;;43.40;28.40;;;;;;;;;;5041984;28;20210;-72
2022/10/12 06:19:10;;;;;;;45.15;30.83;;;;;;;;;;5042531;28;20197;-71
2022/10/12 06:21:39;;;;;;;44.08;31.30;;;;;;;;;;5043301;28;20209;-72
2022/10/12 06:24:06;;;;;;;53.22;30.65;;;;;;;;;;5043607;28;20254;-72
2022/10/12 06:26:33;;;;;;;49.95;31.02;;;;;;;;;;5038867;28;20245;-72
2022/10/12 06:29:00;;;;;;;38.92;27.25;;;;;;;;;;5040931;28;21177;-73
2022/10/12 06:31:27;;;;;;;48.28;27.75;;;;;;;;;;5039871;28;20237;-72
2022/10/12 06:33:53;;;;;;;40.15;27.23;;;;;;;;;;5037851;28;20342;-72
2022/10/12 06:36:20;;;;;;;39.63;27.42;;;;;;;;;;5039063;28;20246;-73
2022/10/12 06:38:47;;;;;;;39.17;25.58;;;;;;;;;;5040105;28;20202;-73
2022/10/12 06:41:14;;;;;;;40.38;25.45;;;;;;;;;;5040797;28;20641;-73
2022/10/12 06:43:40;;;;;;;45.72;27.25;;;;;;;;;;5040210;28;20202;-75
2022/10/12 06:46:07;;;;;;;43.70;28.08;;;;;;;;;;5040511;28;20241;-73
2022/10/12 06:48:34;;;;;;;46.83;26.70;;;;;;;;;;5040566;28;20214;-71
2022/10/12 06:51:00;;;;;;;52.83;28.63;;;;;;;;;;5040986;28;20226;-72
2022/10/12 06:53:27;;;;;;;43.80;29.42;;;;;;;;;;5041109;28;20296;-73
2022/10/12 06:55:55;;;;;;;51.97;27.80;;;;;;;;;;5042020;28;20211;-73
2022/10/12 06:58:22;;;;;;;54.30;31.23;;;;;;;;;;5042961;28;20213;-73
2022/10/12 07:00:48;;;;;;;49.60;30.35;;;;;;;;;;5042130;28;20198;-74
2022/10/12 07:03:15;;;;;;;49.47;30.50;;;;;;;;;;5042071;28;20275;-74
2022/10/12 07:05:42;;;;;;;49.10;29.85;;;;;;;;;;5041063;28;20790;-73
2022/10/12 07:08:08;;;;;;;41.45;27.15;;;;;;;;;;5042220;28;20315;-72
2022/10/12 07:10:35;;;;;;;46.97;29.20;;;;;;;;;;5042099;28;20317;-74
2022/10/12 07:13:03;;;;;;;55.35;32.28;;;;;;;;;;5040308;28;20695;-74
2022/10/12 07:15:29;;;;;;;44.10;29.50;;;;;;;;;;5043600;28;20202;-74
2022/10/12 07:17:56;;;;;;;67.18;32.78;;;;;;;;;;5040443;28;20668;-73
2022/10/12 07:20:22;;;;;;;51.53;31.60;;;;;;;;;;5042018;28;20202;-73
2022/10/12 07:22:49;;;;;;;47.60;27.27;;;;;;;;;;5040893;28;20965;-74
2022/10/12 07:25:15;;;;;;;46.67;27.95;;;;;;;;;;5042266;28;20295;-75
2022/10/12 07:27:42;;;;;;;40.65;27.30;;;;;;;;;;5042841;28;20239;-73
2022/10/12 07:30:11;;;;;;;48.95;31.02;;;;;;;;;;5042181;28;20230;-73
2022/10/12 07:32:38;;;;;;;43.42;27.80;;;;;;;;;;5042814;28;20283;-75
2022/10/12 07:35:05;;;;;;;53.63;32.67;;;;;;;;;;5043126;28;20206;-72
2022/10/12 07:37:34;;;;;;;52.55;31.35;;;;;;;;;;5038773;28;20271;-75
2022/10/12 07:40:01;;;;;;;46.58;26.95;;;;;;;;;;5041576;28;20699;-73
2022/10/12 07:42:27;;;;;;;37.60;26.85;;;;;;;;;;5039638;28;20209;-75
2022/10/12 07:44:54;;;;;;;49.75;30.65;;;;;;;;;;5042942;28;20209;-73
2022/10/12 07:47:22;;;;;;;66.43;35.85;;;;;;;;;;5042593;28;20210;-72
2022/10/12 07:49:48;;;;;;;46.08;29.30;;;;;;;;;;5040415;28;20222;-73
2022/10/12 07:52:15;;;;;;;34.15;25.77;;;;;;;;;;5041035;28;20203;-74
2022/10/12 07:54:42;;;;;;;41.65;24.77;;;;;;;;;;5040649;28;20214;-74
2022/10/12 07:57:08;;;;;;;34.33;24.92;;;;;;;;;;5041914;28;20652;-74
2022/10/12 07:59:35;;;;;;;39.25;23.65;;;;;;;;;;5042084;28;20267;-74
2022/10/12 08:02:01;;;;;;;39.45;25.17;;;;;;;;;;5041292;28;20594;-73
2022/10/12 08:04:29;;;;;;;37.03;24.30;;;;;;;;;;5039663;28;20636;-74
2022/10/12 08:06:56;;;;;;;36.22;24.30;;;;;;;;;;5038231;28;20222;-73
2022/10/12 08:09:23;;;;;;;40.58;25.55;;;;;;;;;;5041959;28;20217;-74
2022/10/12 08:11:50;;;;;;;38.08;25.85;;;;;;;;;;5039134;28;20212;-73
2022/10/12 08:14:16;;;;;;;39.88;23.05;;;;;;;;;;5040240;28;20214;-74
2022/10/12 08:16:43;;;;;;;33.75;21.85;;;;;;;;;;5041402;28;20259;-73
2022/10/12 08:19:09;;;;;;;30.80;21.73;;;;;;;;;;5043018;28;20300;-73
2022/10/12 08:21:37;;;;;;;34.08;22.20;;;;;;;;;;5039610;28;20218;-74
2022/10/12 08:24:04;;;;;;;27.60;20.95;;;;;;;;;;5037055;28;20672;-73
2022/10/12 08:26:32;;;;;;;32.88;21.20;;;;;;;;;;5041906;28;20259;-73
2022/10/12 08:28:58;;;;;;;28.13;20.42;;;;;;;;;;5041023;28;20318;-73
2022/10/12 08:31:25;;;;;;;27.55;21.23;;;;;;;;;;5040874;28;20515;-72
2022/10/12 08:33:51;;;;;;;37.47;22.40;;;;;;;;;;5040197;28;20326;-73
2022/10/12 08:36:17;;;;;;;32.15;21.85;;;;;;;;;;5040247;28;20227;-72
2022/10/12 08:38:51;;;;;;;34.65;20.92;;;;;;;;;;5040312;28;20202;-72
2022/10/12 08:41:28;;;;;;;32.58;21.42;;;;;;;;;;5039315;28;20198;-72
2022/10/12 08:44:12;;;;;;;29.73;22.05;;;;;;;;;;5040337;28;20287;-74
2022/10/12 08:46:39;;;;;;;34.40;20.92;;;;;;;;;;5040044;28;22461;-72
2022/10/12 08:49:06;;;;;;;37.60;21.48;;;;;;;;;;5038049;28;20848;-71
2022/10/12 08:51:39;;;;;;;32.55;21.05;;;;;;;;;;5039625;28;20202;-73
2022/10/12 08:54:07;;;;;;;24.33;17.55;;;;;;;;;;5039188;28;20680;-73
2022/10/12 08:56:34;;;;;;;21.75;17.35;;;;;;;;;;5038654;28;20205;-74
2022/10/12 08:59:01;;;;;;;24.15;17.15;;;;;;;;;;5041203;28;20213;-72
2022/10/12 09:01:29;;;;;;;27.45;18.00;;;;;;;;;;5039194;28;20198;-74
2022/10/12 09:04:05;;;;;;;24.73;18.05;;;;;;;;;;5040382;28;21214;-73
2022/10/12 09:06:34;;;;;;;21.55;16.30;;;;;;;;;;5038851;28;20309;-73
2022/10/12 09:09:04;;;;;;;24.58;17.13;;;;;;;;;;5041123;28;20268;-73
2022/10/12 09:11:55;;;;;;;22.88;17.08;;;;;;;;;;5042216;28;20226;-74
2022/10/12 09:14:26;;;;;;;27.42;18.58;;;;;;;;;;5042338;28;20295;-73
2022/10/12 09:16:54;;;;;;;33.65;18.70;;;;;;;;;;5068844;28;20209;-74
2022/10/12 09:19:23;;;;;;;22.38;16.52;;;;;;;;;;5066114;28;20248;-73
2022/10/12 09:21:50;;;;;;;21.88;16.70;;;;;;;;;;5064791;28;20206;-75
2022/10/12 09:24:17;;;;;;;22.45;15.35;;;;;;;;;;5066123;28;20192;-74
2022/10/12 09:26:45;;;;;;;26.83;15.07;;;;;;;;;;5065369;28;20244;-74
2022/10/12 09:29:22;;;;;;;17.63;14.90;;;;;;;;;;5066514;28;20190;-73
2022/10/12 09:31:57;;;;;;;18.02;15.52;;;;;;;;;;5065391;28;20198;-73
2022/10/12 09:34:24;;;;;;;19.63;15.35;;;;;;;;;;5066202;28;20190;-74
2022/10/12 09:36:50;;;;;;;19.73;15.85;;;;;;;;;;5067925;28;20187;-74
2022/10/12 09:39:19;;;;;;;21.80;16.95;;;;;;;;;;5068241;28;20186;-73
2022/10/12 09:41:47;;;;;;;22.77;16.75;;;;;;;;;;5067642;28;20182;-72
2022/10/12 09:44:15;;;;;;;22.73;15.20;;;;;;;;;;5067508;28;20248;-74
2022/10/12 09:46:44;;;;;;;26.38;15.57;;;;;;;;;;5068790;28;20198;-74
2022/10/12 09:49:12;;;;;;;21.27;17.25;;;;;;;;;;5069207;28;20183;-74
2022/10/12 09:51:39;;;;;;;22.02;16.92;;;;;;;;;;5068501;28;20259;-72
2022/10/12 09:54:05;;;;;;;21.38;17.10;;;;;;;;;;5068463;28;20244;-72
2022/10/12 09:56:38;;;;;;;22.40;15.95;;;;;;;;;;5070399;28;20244;-73
2022/10/12 09:59:06;;;;;;;29.90;18.52;;;;;;;;;;5070519;28;20191;-72
2022/10/12 10:01:33;;;;;;;28.98;19.27;;;;;;;;;;5070632;28;20255;-74
2022/10/12 10:04:16;;;;;;;24.48;17.70;;;;;;;;;;5072295;28;20197;-72
2022/10/12 10:06:43;;;;;;;26.25;16.73;;;;;;;;;;5073298;28;20218;-72
2022/10/12 10:09:26;;;;;;;27.80;17.88;;;;;;;;;;5074407;28;20275;-73
2022/10/12 10:11:52;;;;;;;19.02;16.00;;;;;;;;;;5074415;28;20202;-74
2022/10/12 10:14:19;;;;;;;22.13;15.60;;;;;;;;;;5072827;28;20213;-72
2022/10/12 10:16:47;;;;;;;18.38;14.50;;;;;;;;;;5072196;28;20252;-75
2022/10/12 10:19:17;;;;;;;21.83;15.52;;;;;;;;;;5071684;28;20637;-76
2022/10/12 10:21:44;;;;;;;16.33;13.80;;;;;;;;;;5071339;28;20238;-75
2022/10/12 10:24:22;;;;;;;18.65;14.93;;;;;;;;;;5072386;28;20260;-73
2022/10/12 10:26:52;;;;;;;22.30;15.70;;;;;;;;;;5071444;28;20202;-74
2022/10/12 10:29:26;;;;;;;17.10;14.20;;;;;;;;;;5072308;28;20195;-74
2022/10/12 10:32:10;;;;;;;13.77;12.38;;;;;;;;;;5073113;28;20676;-74
2022/10/12 10:34:38;;;;;;;17.75;14.18;;;;;;;;;;5073483;28;20206;-74
2022/10/12 10:37:06;;;;;;;16.63;12.93;;;;;;;;;;5073408;28;20198;-74
2022/10/12 10:39:37;;;;;;;18.90;14.57;;;;;;;;;;5073888;28;20668;-73
2022/10/12 10:42:09;;;;;;;23.70;15.15;;;;;;;;;;5072910;28;20752;-75
2022/10/12 10:44:37;;;;;;;22.15;15.05;;;;;;;16.02;nan;95816.00;5072959;28;20198;-73
2022/10/12 10:47:07;;;;;;;16.10;13.63;;;;;;;;;;5073016;28;20256;-74
2022/10/12 10:49:36;;;;;;;20.98;15.02;;;;;;;;;;5072934;28;20914;-74
2022/10/12 10:52:05;;;;;;;20.35;14.32;;;;;;;;;;5072624;28;20284;-74
2022/10/12 10:54:33;;;;;;;22.58;14.60;;;;;;;;;;5072864;28;20202;-74
2022/10/12 10:57:01;;;;;;;21.90;16.20;;;;;;;;;;5072757;28;20733;-72
2022/10/12 10:59:34;;;;;;;22.45;15.38;;;;;;;;;;5073038;28;20194;-74
2022/10/12 11:02:02;;;;;;;147.02;74.50;;;;;;;;;;5072718;28;20199;-73
2022/10/12 11:04:30;;;;;;;18.98;15.77;;;;;;;;;;5073586;28;20199;-76
2022/10/12 11:06:59;;;;;;;31.40;19.02;;;;;;;;;;5073192;28;20222;-74
2022/10/12 11:09:29;;;;;;;22.73;14.85;;;;;;;;;;5072381;28;20624;-74
2022/10/12 11:11:56;;;;;;;16.98;14.35;;;;;;;;;;5072246;28;20232;-72
2022/10/12 11:14:27;;;;;;;18.75;14.30;;;;;;;;;;5071994;28;20222;-73
2022/10/12 11:16:55;;;;;;;19.98;15.32;;;;;;;;;;5071682;28;20202;-72
2022/10/12 11:19:25;;;;;;;20.00;13.45;;;;;;;;;;5072482;28;20255;-74
2022/10/12 11:21:53;;;;;;;17.77;14.15;;;;;;;;;;5072094;28;20628;-73
2022/10/12 11:24:22;;;;;;;18.77;13.27;;;;;;;;;;5072739;28;20203;-73
2022/10/12 11:26:53;;;;;;;19.45;13.52;;;;;;;;;;5072186;28;20198;-74
2022/10/12 11:29:20;;;;;;;19.55;12.93;;;;;;;;;;5072686;28;20206;-71
2022/10/12 11:31:53;;;;;;;15.77;12.15;;;;;;;;;;5072299;28;20275;-74
2022/10/12 11:34:21;;;;;;;18.70;12.95;;;;;;;;;;5072459;28;20634;-74
2022/10/12 11:36:49;;;;;;;17.80;14.07;;;;;;;;;;5071872;28;20626;-73
2022/10/12 11:39:18;;;;;;;17.95;12.25;;;;;;;;;;5072047;28;20195;-72
2022/10/12 11:41:46;;;;;;;19.52;14.25;;;;;;;;;;5072123;28;20221;-72
2022/10/12 11:44:15;;;;;;;15.18;12.15;;;;;;;;;;5071921;28;20194;-73
2022/10/12 11:46:45;;;;;;;18.58;11.93;;;;;;;;;;5071857;28;20579;-73
2022/10/12 11:49:13;;;;;;;13.88;12.48;;;;;;;;;;5071945;28;20260;-73
2022/10/12 11:51:40;;;;;;;15.82;12.13;;;;;;;;;;5071766;28;20226;-73
2022/10/12 11:54:11;;;;;;;17.80;13.38;;;;;;;;;;5072092;28;20198;-73
2022/10/12 11:56:41;;;;;;;14.48;12.95;;;;;;;;;;5071939;28;20259;-72
2022/10/12 11:59:12;;;;;;;12.93;11.63;;;;;;;;;;5071764;28;20202;-73
2022/10/12 12:01:45;;;;;;;16.25;11.57;;;;;;;;;;5071939;28;20197;-72
2022/10/12 12:04:17;;;;;;;16.75;11.98;;;;;;;;;;5072054;28;20203;-73
2022/10/12 12:06:48;;;;;;;15.10;11.23;;;;;;;;;;5071665;28;20233;-74
2022/10/12 12:09:29;;;;;;;15.10;13.00;;;;;;;;;;5071788;28;20267;-73
2022/10/12 12:12:07;;;;;;;14.77;12.38;;;;;;;;;;5071140;28;20789;-75
2022/10/12 12:15:03;;;;;;;17.58;12.48;;;;;;;;;;5070019;28;20270;-73
2022/10/12 12:17:32;;;;;;;15.25;12.38;;;;;;;;;;5069658;28;20194;-72
2022/10/12 12:19:59;;;;;;;14.98;13.25;;;;;;;;;;5069576;28;20198;-73
2022/10/12 12:22:30;;;;;;;15.82;12.43;;;;;;;;;;5069518;28;20251;-74
2022/10/12 12:24:58;;;;;;;12.77;11.55;;;;;;;;;;5069299;28;20255;-73
2022/10/12 12:27:30;;;;;;;16.13;12.38;;;;;;;;;;5069012;28;20198;-73
2022/10/12 12:29:57;;;;;;;13.05;11.75;;;;;;;;;;5070469;28;20318;-72
2022/10/12 12:32:25;;;;;;;14.73;13.20;;;;;;;;;;5070580;28;20244;-74
2022/10/12 12:34:55;;;;;;;16.85;12.68;;;;;;;;;;5071229;28;20202;-72
2022/10/12 12:37:22;;;;;;;17.92;15.98;;;;;;;;;;5071091;28;20198;-72
2022/10/12 12:39:52;;;;;;;13.60;12.23;;;;;;;;;;5071034;28;20198;-73
2022/10/12 12:42:21;;;;;;;15.50;12.38;;;;;;;;;;5071097;28;20251;-72
2022/10/12 12:44:48;;;;;;;13.35;10.90;;;;;;;;;;5070569;28;20198;-72
2022/10/12 12:47:16;;;;;;;15.38;12.98;;;;;;;;;;5069871;28;20202;-73
2022/10/12 12:49:43;;;;;;;13.90;12.48;;;;;;;;;;5071149;28;20194;-73
2022/10/12 12:52:22;;;;;;;24.95;14.27;;;;;;;;;;5070739;28;20234;-73
2022/10/12 12:55:03;;;;;;;18.60;13.93;;;;;;;;;;5070877;28;20237;-73
2022/10/12 12:57:35;;;;;;;18.15;13.30;;;;;;;;;;5070691;28;20687;-73
2022/10/12 13:00:07;;;;;;;16.40;12.95;;;;;;;;;;5071067;28;20206;-74
2022/10/12 13:03:00;;;;;;;14.35;12.90;;;;;;;;;;5070545;28;20194;-72
2022/10/12 13:05:39;;;;;;;15.30;12.63;;;;;;;;;;5071052;28;20202;-74
2022/10/12 13:08:12;;;;;;;15.63;12.45;;;;;;;;;;5070455;28;20658;-75
2022/10/12 13:10:49;;;;;;;16.00;11.90;;;;;;;;;;5070756;28;20232;-73
2022/10/12 13:13:26;;;;;;;15.60;12.15;;;;;;;;;;5070537;28;20209;-73
2022/10/12 13:15:58;;;;;;;16.15;12.13;;;;;;;;;;5071094;28;20283;-73
2022/10/12 13:18:47;;;;;;;31.48;15.73;;;;;;;;;;5070896;28;20198;-72
2022/10/12 13:21:15;;;;;;;16.02;13.30;;;;;;;;;;5070757;28;20198;-73
2022/10/12 13:23:44;;;;;;;16.73;14.18;;;;;;;;;;5070251;28;20676;-73
2022/10/12 13:26:15;;;;;;;18.17;13.02;;;;;;;;;;5070879;28;20198;-75
2022/10/12 13:28:42;;;;;;;22.67;14.70;;;;;;;;;;5070412;28;20631;-73
2022/10/12 13:31:13;;;;;;;18.85;14.40;;;;;;;;;;5070672;28;20218;-73
2022/10/12 13:33:44;;;;;;;17.52;14.50;;;;;;;;;;5070398;28;20743;-73
2022/10/12 13:36:17;;;;;;;23.15;14.02;;;;;;;;;;5070392;28;20198;-73
2022/10/12 13:38:44;;;;;;;19.80;14.80;;;;;;;;;;5071744;28;20664;-74
2022/10/12 13:41:12;;;;;;;17.35;14.95;;;;;;;;;;5074233;28;20267;-72
2022/10/12 13:43:43;;;;;;;28.00;15.57;;;;;;;;;;5074364;28;20198;-74
2022/10/12 13:46:11;;;;;;;26.00;14.90;;;;;;;;;;5074153;28;20279;-74
2022/10/12 13:48:37;;;;;;;20.27;15.52;;;;;;;;;;5073557;28;20689;-73
2022/10/12 13:51:05;;;;;;;21.17;16.40;;;;;;;;;;5072674;28;20612;-73
2022/10/12 13:53:36;;;;;;;30.23;17.00;;;;;;;;;;5074205;28;20198;-74
2022/10/12 13:56:05;;;;;;;22.50;16.92;;;;;;;;;;5074112;28;20327;-73
2022/10/12 13:58:34;;;;;;;26.55;17.13;;;;;;;;;;5074108;28;20205;-73
2022/10/12 14:01:00;;;;;;;21.92;15.32;;;;;;;;;;5073991;28;20198;-72
2022/10/12 14:03:34;;;;;;;19.42;15.55;;;;;;;;;;5074009;28;20199;-73
2022/10/12 14:06:00;;;;;;;21.45;15.48;;;;;;;;;;5072278;28;20712;-73
2022/10/12 14:08:27;;;;;;;21.13;14.70;;;;;;;;;;5071763;28;20745;-73
2022/10/12 14:10:56;;;;;;;19.45;16.00;;;;;;;;;;5070417;28;20198;-73
2022/10/12 14:13:26;;;;;;;23.20;15.98;;;;;;;;;;5070309;28;20194;-72
2022/10/12 14:15:52;;;;;;;19.02;15.70;;;;;;;;;;5070294;28;20771;-72
2022/10/12 14:18:32;;;;;;;23.52;15.70;;;;;;;;;;5070545;28;20668;-72
2022/10/12 14:21:05;;;;;;;18.75;15.52;;;;;;;;;;5071501;28;20198;-73
2022/10/12 14:23:31;;;;;;;18.55;15.60;;;;;;;;;;5071744;28;20225;-72
2022/10/12 14:25:58;;;;;;;20.10;14.70;;;;;;;;;;5073293;28;20255;-73